createdAt,value
2023-02-17T00:01:11.527Z,7.05
2023-02-17T00:03:39.621Z,6.99
2023-02-17T00:06:08.861Z,7.00
2023-02-17T00:08:37.180Z,6.98
2023-02-17T00:11:05.790Z,6.93
2023-02-17T00:13:33.777Z,6.91
2023-02-17T00:16:08.083Z,6.90
2023-02-17T00:18:36.344Z,6.95
2023-02-17T00:21:13.241Z,6.99
2023-02-17T00:23:41.222Z,7.00
2023-02-17T00:26:09.347Z,6.95
2023-02-17T00:28:37.334Z,6.97
2023-02-17T00:31:11.198Z,6.86
2023-02-17T00:33:39.279Z,6.83
2023-02-17T00:36:09.257Z,6.85
2023-02-17T00:38:38.418Z,6.85
2023-02-17T00:41:06.691Z,6.83
2023-02-17T00:43:34.669Z,6.86
2023-02-17T00:46:04.463Z,6.84
2023-02-17T00:48:34.371Z,6.76
2023-02-17T00:51:02.503Z,6.77
2023-02-17T00:53:30.741Z,6.76
2023-02-17T00:55:58.756Z,6.77
2023-02-17T00:58:26.970Z,6.76
2023-02-17T01:00:56.657Z,6.79
2023-02-17T01:03:25.448Z,6.79
2023-02-17T01:05:55.662Z,6.76
2023-02-17T01:08:25.517Z,6.78
2023-02-17T01:10:54.339Z,6.77
2023-02-17T01:13:22.833Z,6.73
2023-02-17T01:15:53.238Z,6.68
2023-02-17T01:18:23.229Z,6.70
2023-02-17T01:20:52.341Z,6.71
2023-02-17T01:23:22.126Z,6.73
2023-02-17T01:25:50.789Z,6.80
2023-02-17T01:28:21.437Z,6.83
2023-02-17T01:30:49.907Z,6.84
2023-02-17T01:33:17.992Z,6.88
2023-02-17T01:35:46.564Z,6.85
2023-02-17T01:38:14.638Z,6.89
2023-02-17T01:40:48.873Z,6.91
2023-02-17T01:43:18.220Z,6.92
2023-02-17T01:45:52.527Z,6.91
2023-02-17T01:48:23.822Z,6.88
2023-02-17T01:50:55.084Z,6.90
2023-02-17T01:53:29.051Z,6.94
2023-02-17T01:55:58.681Z,7.01
2023-02-17T01:58:29.233Z,7.02
2023-02-17T02:01:00.520Z,7.05
2023-02-17T02:03:31.391Z,7.03
2023-02-17T02:06:01.322Z,7.03
2023-02-17T02:08:35.408Z,7.05
2023-02-17T02:11:04.791Z,7.05
2023-02-17T02:13:34.158Z,7.02
2023-02-17T02:16:12.215Z,7.09
2023-02-17T02:18:55.401Z,7.02
2023-02-17T02:21:58.173Z,6.89
2023-02-17T02:24:36.383Z,6.80
2023-02-17T02:27:49.395Z,6.76
2023-02-17T02:30:56.868Z,6.69
2023-02-17T02:33:33.622Z,6.75
2023-02-17T02:36:07.197Z,6.77
2023-02-17T02:38:42.084Z,6.77
2023-02-17T02:41:14.145Z,6.82
2023-02-17T02:43:43.640Z,6.78
2023-02-17T02:46:11.757Z,6.80
2023-02-17T02:48:42.115Z,6.83
2023-02-17T02:51:42.832Z,6.81
2023-02-17T02:54:28.889Z,6.80
2023-02-17T02:57:10.185Z,6.79
2023-02-17T02:59:47.254Z,6.79
2023-02-17T03:02:23.152Z,6.77
2023-02-17T03:04:59.484Z,6.76
2023-02-17T03:07:31.528Z,6.78
2023-02-17T03:10:01.732Z,6.77
2023-02-17T03:12:30.252Z,6.72
2023-02-17T03:15:03.363Z,6.70
2023-02-17T03:17:32.780Z,6.67
2023-02-17T03:20:03.995Z,6.57
2023-02-17T03:22:37.698Z,6.54
2023-02-17T03:25:06.277Z,6.57
2023-02-17T03:27:34.248Z,6.57
2023-02-17T03:30:02.285Z,6.61
2023-02-17T03:32:30.356Z,6.55
2023-02-17T03:34:58.296Z,6.45
2023-02-17T03:37:27.734Z,6.41
2023-02-17T03:39:55.765Z,6.41
2023-02-17T03:42:24.057Z,6.39
2023-02-17T03:44:52.051Z,6.36
2023-02-17T03:47:19.997Z,6.36
2023-02-17T03:49:47.953Z,6.36
2023-02-17T03:52:15.979Z,6.33
2023-02-17T03:54:45.489Z,6.34
2023-02-17T03:57:13.488Z,6.36
2023-02-17T03:59:41.514Z,6.44
2023-02-17T04:02:09.455Z,6.43
2023-02-17T04:04:37.775Z,6.45
2023-02-17T04:07:05.930Z,6.45
2023-02-17T04:09:33.914Z,6.43
2023-02-17T04:12:03.307Z,6.37
2023-02-17T04:14:31.329Z,6.36
2023-02-17T04:16:59.266Z,6.38
2023-02-17T04:19:27.312Z,6.37
2023-02-17T04:21:55.255Z,6.36
2023-02-17T04:24:23.219Z,6.35
2023-02-17T04:26:51.160Z,6.36
2023-02-17T04:29:20.521Z,6.36
2023-02-17T04:31:48.587Z,6.35
2023-02-17T04:34:16.644Z,6.34
2023-02-17T04:36:44.665Z,6.36
2023-02-17T04:39:12.703Z,6.40
2023-02-17T04:41:40.728Z,6.48
2023-02-17T04:44:08.709Z,6.53
2023-02-17T04:46:38.038Z,6.56
2023-02-17T04:49:06.011Z,6.62
2023-02-17T04:51:33.984Z,6.65
2023-02-17T04:54:01.986Z,6.66
2023-02-17T04:56:29.944Z,6.66
2023-02-17T04:58:57.987Z,6.68
2023-02-17T05:01:26.013Z,6.68
2023-02-17T05:03:55.376Z,6.64
2023-02-17T05:06:23.327Z,6.59
2023-02-17T05:08:51.436Z,6.54
2023-02-17T05:11:19.375Z,6.53
2023-02-17T05:13:47.325Z,6.46
2023-02-17T05:16:15.452Z,6.42
2023-02-17T05:18:43.444Z,6.39
2023-02-17T05:21:12.789Z,6.43
2023-02-17T05:23:41.421Z,6.39
2023-02-17T05:26:10.455Z,6.34
2023-02-17T05:28:39.186Z,6.31
2023-02-17T05:31:07.758Z,6.30
2023-02-17T05:33:36.045Z,6.34
2023-02-17T05:36:09.244Z,6.35
2023-02-17T05:38:39.964Z,6.27
2023-02-17T05:41:07.977Z,6.16
2023-02-17T05:43:35.954Z,6.16
2023-02-17T05:46:04.569Z,6.18
2023-02-17T05:48:33.129Z,6.19
2023-02-17T05:51:01.280Z,6.16
2023-02-17T05:53:29.349Z,6.19
2023-02-17T05:55:58.752Z,6.07
2023-02-17T05:58:27.341Z,6.02
2023-02-17T06:00:55.400Z,6.02
2023-02-17T06:03:23.368Z,6.02
2023-02-17T06:05:51.405Z,6.06
2023-02-17T06:08:19.417Z,6.13
2023-02-17T06:10:47.520Z,6.18
2023-02-17T06:13:16.840Z,6.17
2023-02-17T06:15:44.934Z,6.24
2023-02-17T06:18:12.913Z,6.23
2023-02-17T06:20:41.223Z,6.16
2023-02-17T06:23:09.203Z,6.13
2023-02-17T06:25:37.293Z,6.14
2023-02-17T06:28:05.603Z,6.15
2023-02-17T06:30:35.091Z,6.16
2023-02-17T06:33:03.105Z,6.19
2023-02-17T06:35:31.173Z,6.15
2023-02-17T06:37:59.238Z,6.10
2023-02-17T06:40:28.808Z,6.10
2023-02-17T06:42:56.888Z,6.06
2023-02-17T06:45:24.902Z,6.06
2023-02-17T06:47:54.358Z,6.05
2023-02-17T06:50:22.806Z,6.07
2023-02-17T06:52:50.884Z,6.13
2023-02-17T06:55:18.981Z,6.22
2023-02-17T06:57:46.969Z,6.28
2023-02-17T07:00:15.447Z,6.35
2023-02-17T07:02:43.467Z,6.42
2023-02-17T07:05:12.898Z,6.42
2023-02-17T07:07:40.993Z,6.42
2023-02-17T07:10:10.111Z,6.45
2023-02-17T07:12:38.133Z,6.46
2023-02-17T07:15:09.474Z,6.53
2023-02-17T07:17:39.790Z,6.57
2023-02-17T07:20:09.413Z,6.64
2023-02-17T07:22:38.754Z,6.69
2023-02-17T07:25:07.901Z,6.76
2023-02-17T07:27:37.020Z,6.84
2023-02-17T07:30:06.397Z,6.90
2023-02-17T07:32:35.615Z,6.96
2023-02-17T07:35:03.729Z,6.89
2023-02-17T07:37:31.706Z,6.88
2023-02-17T07:40:01.555Z,6.97
2023-02-17T07:42:29.709Z,7.00
2023-02-17T07:44:57.700Z,7.07
2023-02-17T07:47:25.662Z,7.11
2023-02-17T07:49:53.638Z,7.17
2023-02-17T07:52:21.587Z,7.25
2023-02-17T07:54:49.577Z,7.33
2023-02-17T07:57:18.918Z,7.41
2023-02-17T07:59:47.590Z,7.49
2023-02-17T08:02:15.547Z,7.54
2023-02-17T08:04:44.444Z,7.50
2023-02-17T08:07:12.378Z,7.34
2023-02-17T08:09:58.060Z,7.29
2023-02-17T08:12:44.810Z,7.34
2023-02-17T08:15:13.271Z,7.36
2023-02-17T08:17:41.293Z,7.39
2023-02-17T08:20:09.841Z,7.39
2023-02-17T08:22:37.886Z,7.44
2023-02-17T08:25:06.638Z,7.46
2023-02-17T08:27:35.987Z,7.49
2023-02-17T08:30:04.095Z,7.55
2023-02-17T08:32:32.083Z,7.59
2023-02-17T08:35:00.300Z,7.59
2023-02-17T08:37:28.394Z,7.54
2023-02-17T08:39:56.345Z,7.57
2023-02-17T08:42:24.356Z,7.62
2023-02-17T08:44:53.719Z,7.58
2023-02-17T08:47:21.654Z,7.58
2023-02-17T08:49:49.707Z,7.62
2023-02-17T08:52:17.806Z,7.71
2023-02-17T08:54:45.795Z,7.75
2023-02-17T08:57:13.796Z,7.80
2023-02-17T08:59:41.840Z,7.85
2023-02-17T09:02:12.051Z,8.02
2023-02-17T09:04:40.091Z,8.13
2023-02-17T09:07:12.198Z,8.22
2023-02-17T09:09:41.057Z,8.27
2023-02-17T09:12:09.483Z,8.39
2023-02-17T09:14:37.639Z,8.40
2023-02-17T09:17:06.512Z,8.40
2023-02-17T09:19:39.421Z,8.39
2023-02-17T09:22:07.587Z,8.45
2023-02-17T09:24:38.763Z,8.45
2023-02-17T09:27:07.088Z,8.34
2023-02-17T09:29:35.078Z,8.21
2023-02-17T09:32:03.213Z,8.14
2023-02-17T09:34:31.394Z,8.08
2023-02-17T09:37:00.735Z,8.09
2023-02-17T09:39:28.843Z,8.26
2023-02-17T09:41:57.918Z,8.21
2023-02-17T09:44:27.443Z,8.23
2023-02-17T09:47:02.686Z,8.27
2023-02-17T09:49:38.407Z,8.44
2023-02-17T09:52:15.584Z,8.61
2023-02-17T09:54:54.727Z,8.70
2023-02-17T09:57:28.466Z,8.76
2023-02-17T10:00:00.268Z,8.85
2023-02-17T10:02:34.546Z,8.99
2023-02-17T10:05:08.650Z,9.07
2023-02-17T10:07:42.954Z,9.16
2023-02-17T10:10:15.371Z,9.22
2023-02-17T10:12:48.331Z,9.25
2023-02-17T10:15:19.635Z,9.28
2023-02-17T10:17:56.302Z,9.35
2023-02-17T10:20:26.942Z,9.44
2023-02-17T10:23:02.774Z,9.51
2023-02-17T10:25:54.891Z,9.55
2023-02-17T10:28:35.051Z,9.62
2023-02-17T10:31:05.491Z,9.76
2023-02-17T10:33:37.732Z,9.78
2023-02-17T10:36:17.888Z,9.80
2023-02-17T10:38:51.937Z,9.84
2023-02-17T10:41:25.065Z,9.87
2023-02-17T10:43:54.112Z,10.05
2023-02-17T10:46:28.478Z,10.23
2023-02-17T10:48:58.649Z,10.33
2023-02-17T10:51:29.157Z,10.44
2023-02-17T10:54:02.376Z,10.57
2023-02-17T10:56:36.810Z,10.70
2023-02-17T10:59:09.212Z,10.79
2023-02-17T11:01:38.252Z,10.87
2023-02-17T11:04:08.150Z,10.92
2023-02-17T11:06:42.328Z,10.98
2023-02-17T11:09:21.800Z,10.97
2023-02-17T11:11:54.596Z,11.03
2023-02-17T11:14:28.020Z,11.07
2023-02-17T11:17:00.147Z,11.17
2023-02-17T11:19:30.745Z,11.24
2023-02-17T11:22:00.308Z,11.29
2023-02-17T11:24:31.836Z,11.32
2023-02-17T11:27:01.935Z,11.35
2023-02-17T11:29:31.642Z,11.35
2023-02-17T11:32:02.261Z,11.41
2023-02-17T11:34:33.212Z,11.42
2023-02-17T11:37:04.766Z,11.49
2023-02-17T11:39:39.701Z,11.51
2023-02-17T11:42:16.691Z,11.60
2023-02-17T11:44:44.810Z,11.72
2023-02-17T11:47:23.990Z,11.85
2023-02-17T11:50:04.658Z,11.94
2023-02-17T11:52:47.770Z,12.00
2023-02-17T11:55:23.753Z,12.10
2023-02-17T11:58:07.504Z,12.13
2023-02-17T12:00:46.792Z,12.21
2023-02-17T12:03:48.524Z,12.25
2023-02-17T12:06:23.548Z,12.30
2023-02-17T12:09:04.973Z,12.30
2023-02-17T12:11:45.069Z,12.40
2023-02-17T12:14:25.200Z,12.57
2023-02-17T12:17:02.399Z,12.64
2023-02-17T12:19:45.205Z,12.56
2023-02-17T12:22:19.491Z,12.56
2023-02-17T12:25:09.993Z,12.66
2023-02-17T12:27:51.119Z,12.69
2023-02-17T12:30:39.471Z,12.82
2023-02-17T12:33:22.963Z,12.87
2023-02-17T12:35:53.361Z,12.94
2023-02-17T12:38:26.723Z,12.99
2023-02-17T12:40:59.509Z,13.02
2023-02-17T12:43:33.602Z,13.06
2023-02-17T12:46:06.964Z,13.13
2023-02-17T12:48:39.200Z,13.12
2023-02-17T12:51:13.096Z,13.10
2023-02-17T12:53:46.759Z,13.18
2023-02-17T12:56:47.325Z,13.24
2023-02-17T12:59:21.273Z,13.30
2023-02-17T13:01:55.376Z,13.34
2023-02-17T13:04:26.344Z,13.39
2023-02-17T13:07:03.475Z,13.47
2023-02-17T13:09:37.195Z,13.54
2023-02-17T13:12:11.090Z,13.56
2023-02-17T13:14:45.950Z,13.63
2023-02-17T13:17:28.411Z,13.71
2023-02-17T13:20:24.773Z,13.74
2023-02-17T13:23:05.620Z,13.71
2023-02-17T13:25:37.616Z,13.77
2023-02-17T13:28:33.711Z,13.82
2023-02-17T13:31:13.407Z,13.86
2023-02-17T13:33:45.190Z,13.85
2023-02-17T13:36:16.687Z,13.90
2023-02-17T13:38:56.536Z,13.97
2023-02-17T13:41:24.556Z,14.06
2023-02-17T13:43:52.529Z,14.19
2023-02-17T13:46:25.337Z,14.27
2023-02-17T13:49:02.912Z,14.40
2023-02-17T13:51:33.395Z,14.52
2023-02-17T13:54:09.061Z,14.40
2023-02-17T13:56:37.152Z,14.30
2023-02-17T13:59:10.538Z,14.32
2023-02-17T14:01:43.194Z,14.37
2023-02-17T14:04:23.176Z,14.39
2023-02-17T14:06:52.609Z,14.39
2023-02-17T14:09:26.586Z,14.37
2023-02-17T14:11:55.996Z,14.31
2023-02-17T14:14:27.242Z,14.30
2023-02-17T14:17:02.516Z,14.30
2023-02-17T14:19:31.576Z,14.27
2023-02-17T14:22:03.094Z,14.23
2023-02-17T14:24:33.333Z,14.21
2023-02-17T14:27:05.722Z,14.21
2023-02-17T14:29:41.553Z,14.18
2023-02-17T14:32:29.176Z,14.16
2023-02-17T14:35:07.962Z,14.16
2023-02-17T14:37:37.088Z,14.13
2023-02-17T14:40:06.259Z,14.11
2023-02-17T14:42:34.276Z,14.09
2023-02-17T14:45:02.234Z,14.04
2023-02-17T14:47:31.590Z,14.02
2023-02-17T14:49:59.597Z,14.00
2023-02-17T14:52:27.581Z,13.97
2023-02-17T14:54:55.637Z,13.99
2023-02-17T14:57:28.573Z,13.94
2023-02-17T14:59:57.805Z,13.92
2023-02-17T15:02:25.891Z,13.87
2023-02-17T15:04:55.409Z,13.85
2023-02-17T15:07:24.040Z,13.86
2023-02-17T15:09:51.981Z,13.81
2023-02-17T15:12:21.813Z,13.81
2023-02-17T15:14:49.841Z,13.77
2023-02-17T15:17:17.950Z,13.78
2023-02-17T15:19:45.952Z,13.81
2023-02-17T15:22:15.923Z,13.80
2023-02-17T15:24:43.896Z,13.78
2023-02-17T15:27:15.080Z,13.80
2023-02-17T15:29:43.094Z,13.79
2023-02-17T15:32:18.950Z,13.78
2023-02-17T15:34:47.348Z,13.75
2023-02-17T15:37:16.672Z,13.73
2023-02-17T15:39:44.686Z,13.70
2023-02-17T15:42:15.401Z,13.72
2023-02-17T15:44:47.075Z,13.74
2023-02-17T15:47:18.353Z,13.70
2023-02-17T15:49:46.508Z,13.71
2023-02-17T15:52:16.793Z,13.69
2023-02-17T15:54:45.412Z,13.66
2023-02-17T15:57:22.112Z,13.64
2023-02-17T15:59:50.601Z,13.59
2023-02-17T16:02:22.534Z,13.58
2023-02-17T16:04:51.018Z,13.55
2023-02-17T16:07:20.341Z,13.54
2023-02-17T16:09:48.445Z,13.49
2023-02-17T16:12:26.437Z,13.44
2023-02-17T16:14:55.033Z,13.40
2023-02-17T16:17:23.305Z,13.40
2023-02-17T16:19:51.340Z,13.39
2023-02-17T16:22:20.678Z,13.37
2023-02-17T16:24:48.644Z,13.33
2023-02-17T16:27:17.966Z,13.34
2023-02-17T16:29:45.954Z,13.33
2023-02-17T16:32:14.591Z,13.34
2023-02-17T16:34:42.885Z,13.28
2023-02-17T16:37:16.064Z,13.29
2023-02-17T16:39:46.188Z,13.34
2023-02-17T16:42:15.738Z,13.31
2023-02-17T16:44:44.262Z,13.24
2023-02-17T16:47:20.789Z,13.26
2023-02-17T16:49:50.378Z,13.24
2023-02-17T16:52:25.168Z,13.21
2023-02-17T16:54:55.473Z,13.18
2023-02-17T16:57:23.869Z,13.16
2023-02-17T16:59:51.982Z,13.12
2023-02-17T17:02:21.634Z,13.12
2023-02-17T17:04:49.831Z,13.11
2023-02-17T17:07:18.146Z,13.11
2023-02-17T17:10:06.934Z,13.10
2023-02-17T17:12:36.093Z,13.03
2023-02-17T17:15:05.068Z,12.91
2023-02-17T17:17:38.831Z,12.89
2023-02-17T17:20:08.760Z,12.83
2023-02-17T17:22:36.781Z,12.78
2023-02-17T17:25:04.866Z,12.75
2023-02-17T17:27:32.846Z,12.71
2023-02-17T17:30:02.227Z,12.67
2023-02-17T17:32:30.260Z,12.63
2023-02-17T17:34:58.267Z,12.59
2023-02-17T17:37:26.213Z,12.53
2023-02-17T17:39:54.152Z,12.46
2023-02-17T17:42:22.137Z,12.41
2023-02-17T17:44:50.086Z,12.35
2023-02-17T17:47:29.454Z,12.32
2023-02-17T17:49:58.413Z,12.29
2023-02-17T17:52:26.911Z,12.26
2023-02-17T17:54:54.860Z,12.25
2023-02-17T17:57:23.292Z,12.18
2023-02-17T17:59:51.262Z,12.12
2023-02-17T18:02:20.596Z,12.07
2023-02-17T18:04:48.807Z,12.07
2023-02-17T18:07:18.071Z,12.07
2023-02-17T18:09:46.214Z,12.03
2023-02-17T18:12:18.858Z,11.96
2023-02-17T18:14:50.350Z,11.93
2023-02-17T18:17:20.588Z,11.93
2023-02-17T18:19:54.513Z,11.92
2023-02-17T18:22:22.705Z,11.89
2023-02-17T18:24:50.901Z,11.91
2023-02-17T18:27:18.904Z,11.89
2023-02-17T18:29:47.008Z,11.84
2023-02-17T18:32:15.026Z,11.82
2023-02-17T18:34:43.004Z,11.80
2023-02-17T18:37:12.390Z,11.75
2023-02-17T18:39:40.736Z,11.69
2023-02-17T18:42:10.204Z,11.65
2023-02-17T18:44:38.216Z,11.61
2023-02-17T18:47:06.233Z,11.59
2023-02-17T18:49:34.187Z,11.55
2023-02-17T18:52:02.185Z,11.51
2023-02-17T18:54:31.597Z,11.43
2023-02-17T18:56:59.602Z,11.35
2023-02-17T18:59:27.543Z,11.31
2023-02-17T19:01:55.557Z,11.29
2023-02-17T19:04:23.488Z,11.25
2023-02-17T19:06:51.479Z,11.25
2023-02-17T19:09:19.436Z,11.17
2023-02-17T19:11:48.772Z,11.06
2023-02-17T19:14:16.746Z,10.96
2023-02-17T19:16:44.824Z,10.91
2023-02-17T19:19:12.828Z,10.85
2023-02-17T19:21:40.807Z,10.82
2023-02-17T19:24:09.539Z,10.82
2023-02-17T19:26:38.108Z,10.84
2023-02-17T19:29:07.459Z,10.83
2023-02-17T19:31:35.556Z,10.80
2023-02-17T19:34:03.553Z,10.74
2023-02-17T19:36:31.549Z,10.69
2023-02-17T19:38:59.558Z,10.66
2023-02-17T19:41:27.565Z,10.62
2023-02-17T19:43:55.535Z,10.57
2023-02-17T19:46:25.780Z,10.55
2023-02-17T19:48:53.843Z,10.56
2023-02-17T19:51:22.228Z,10.56
2023-02-17T19:53:50.213Z,10.56
2023-02-17T19:56:20.329Z,10.64
2023-02-17T19:58:49.062Z,10.64
2023-02-17T20:01:19.495Z,10.60
2023-02-17T20:03:49.282Z,10.56
2023-02-17T20:06:21.121Z,10.56
2023-02-17T20:08:53.076Z,10.58
2023-02-17T20:11:21.294Z,10.59
2023-02-17T20:13:49.460Z,10.53
2023-02-17T20:16:18.642Z,10.49
2023-02-17T20:18:49.591Z,10.51
2023-02-17T20:21:20.105Z,10.48
2023-02-17T20:23:48.211Z,10.44
2023-02-17T20:26:18.637Z,10.43
2023-02-17T20:28:47.551Z,10.42
2023-02-17T20:31:16.092Z,10.38
2023-02-17T20:33:44.484Z,10.28
2023-02-17T20:36:13.880Z,10.20
2023-02-17T20:38:42.725Z,10.15
2023-02-17T20:41:16.836Z,10.12
2023-02-17T20:43:45.205Z,10.18
2023-02-17T20:46:15.220Z,10.20
2023-02-17T20:48:43.299Z,10.14
2023-02-17T20:51:11.306Z,10.14
2023-02-17T20:53:40.849Z,10.20
2023-02-17T20:56:13.455Z,10.22
2023-02-17T20:58:41.539Z,10.18
2023-02-17T21:01:09.933Z,10.15
2023-02-17T21:03:38.121Z,10.14
2023-02-17T21:06:15.664Z,10.13
2023-02-17T21:08:45.696Z,10.10
2023-02-17T21:11:13.803Z,10.07
2023-02-17T21:13:41.772Z,10.03
2023-02-17T21:16:13.065Z,9.99
2023-02-17T21:18:41.090Z,9.97
2023-02-17T21:21:09.420Z,9.98
2023-02-17T21:23:37.464Z,9.95
2023-02-17T21:26:09.833Z,9.91
2023-02-17T21:28:38.326Z,9.87
2023-02-17T21:31:06.881Z,9.84
2023-02-17T21:33:35.630Z,9.81
2023-02-17T21:36:07.122Z,9.81
2023-02-17T21:38:35.227Z,9.84
2023-02-17T21:41:06.874Z,9.86
2023-02-17T21:43:53.597Z,9.88
2023-02-17T21:46:22.076Z,9.80
2023-02-17T21:48:51.137Z,9.81
2023-02-17T21:51:20.642Z,9.76
2023-02-17T21:53:48.591Z,9.72
2023-02-17T21:56:16.993Z,9.67
2023-02-17T21:58:48.112Z,9.67
2023-02-17T22:01:16.607Z,9.62
2023-02-17T22:03:44.728Z,9.60
2023-02-17T22:06:17.432Z,9.52
2023-02-17T22:08:46.372Z,9.47
2023-02-17T22:11:16.025Z,9.50
2023-02-17T22:13:44.306Z,9.45
2023-02-17T22:16:14.355Z,9.42
2023-02-17T22:18:42.513Z,9.41
2023-02-17T22:21:11.698Z,9.41
2023-02-17T22:23:40.662Z,9.39
2023-02-17T22:26:11.178Z,9.37
2023-02-17T22:28:39.540Z,9.34
2023-02-17T22:31:07.669Z,9.30
2023-02-17T22:33:37.035Z,9.34
2023-02-17T22:36:07.917Z,9.35
2023-02-17T22:38:36.578Z,9.33
2023-02-17T22:41:07.277Z,9.30
2023-02-17T22:43:36.966Z,9.27
2023-02-17T22:46:06.300Z,9.21
2023-02-17T22:48:37.468Z,9.14
2023-02-17T22:51:06.701Z,9.10
2023-02-17T22:53:35.873Z,9.09
2023-02-17T22:56:04.652Z,9.01
2023-02-17T22:58:33.432Z,8.99
2023-02-17T23:01:06.420Z,8.99
2023-02-17T23:03:36.649Z,8.99
2023-02-17T23:06:07.054Z,9.01
2023-02-17T23:08:35.668Z,8.99
2023-02-17T23:11:05.545Z,8.98
2023-02-17T23:13:33.684Z,8.96
2023-02-17T23:16:02.121Z,8.94
2023-02-17T23:18:31.766Z,8.88
2023-02-17T23:21:07.372Z,8.88
2023-02-17T23:23:35.610Z,8.95
2023-02-17T23:26:03.675Z,8.92
2023-02-17T23:28:31.879Z,8.88
2023-02-17T23:30:59.993Z,8.84
2023-02-17T23:33:28.101Z,8.80
2023-02-17T23:35:56.091Z,8.82
2023-02-17T23:38:25.456Z,8.84
2023-02-17T23:40:54.048Z,8.82
2023-02-17T23:43:22.438Z,8.80
2023-02-17T23:45:50.427Z,8.80
2023-02-17T23:48:18.413Z,8.75
2023-02-17T23:50:46.384Z,8.71
2023-02-17T23:53:15.742Z,8.67
2023-02-17T23:55:45.039Z,8.69
2023-02-17T23:58:12.971Z,8.69
